Arcola, Texas
Current Conditions -  °F | °C
As of 9:15 AM on Wednesday 22 Oct 2014 (Local Time) from KAXH Reporting Station
Clear Clear  
Wind Chill: 62°   Ceiling: Unl
Heat Index: 62°   Visibility: 10mi
Dew Point: 57°   Wind: 7mph
Humidity: 85%   Direction: 50°NE
Pressure: 30.1"   Gusts: NA
Location:  29.4042°N, 95.4477°W
Report Text: KAXH 221415Z AUTO 05006KT 10SM CLR 17/14 A3010 RMK AO2 T01660140
Loading
Personal Weather Stations






























Interactive Weather Map New forecast layout! Learn more

10-Day Weather Forecast

Advertisements
Track Severe Weather on mobile